createdAt,value
2022-10-16T00:01:33.085Z,89.36
2022-10-16T00:03:35.275Z,89.42
2022-10-16T00:05:42.028Z,89.79
2022-10-16T00:07:43.479Z,88.90
2022-10-16T00:09:44.959Z,88.54
2022-10-16T00:11:46.503Z,88.31
2022-10-16T00:13:50.053Z,88.49
2022-10-16T00:15:51.486Z,88.58
2022-10-16T00:17:53.046Z,89.22
2022-10-16T00:19:54.472Z,88.70
2022-10-16T00:21:55.910Z,88.89
2022-10-16T00:24:03.709Z,88.30
2022-10-16T00:26:09.431Z,87.46
2022-10-16T00:28:11.031Z,87.97
2022-10-16T00:30:12.688Z,87.37
2022-10-16T00:32:14.101Z,87.80
2022-10-16T00:34:15.562Z,88.42
2022-10-16T00:36:19.966Z,88.84
2022-10-16T00:38:21.396Z,89.60
2022-10-16T00:40:22.842Z,89.56
2022-10-16T00:42:24.596Z,88.96
2022-10-16T00:45:02.234Z,88.36
2022-10-16T00:47:03.766Z,88.15
2022-10-16T00:49:15.315Z,87.87
2022-10-16T00:51:21.115Z,88.28
2022-10-16T00:53:22.892Z,88.40
2022-10-16T00:55:25.637Z,87.39
2022-10-16T00:57:27.282Z,87.94
2022-10-16T00:59:38.708Z,88.05
2022-10-16T01:01:40.151Z,86.93
2022-10-16T01:03:41.635Z,86.79
2022-10-16T01:06:03.375Z,86.67
2022-10-16T01:08:20.651Z,86.57
2022-10-16T01:10:22.062Z,88.05
2022-10-16T01:12:58.795Z,88.12
2022-10-16T01:15:07.923Z,88.72
2022-10-16T01:17:32.909Z,89.59
2022-10-16T01:20:15.736Z,89.89
2022-10-16T01:22:18.622Z,90.14
2022-10-16T01:24:45.466Z,90.05
2022-10-16T01:27:10.181Z,90.08
2022-10-16T01:29:22.134Z,90.22
2022-10-16T01:31:27.052Z,90.65
2022-10-16T01:33:36.797Z,90.31
2022-10-16T01:35:49.351Z,89.87
2022-10-16T01:38:17.499Z,90.02
2022-10-16T01:40:21.657Z,90.06
2022-10-16T01:42:27.797Z,89.68
2022-10-16T01:44:33.589Z,89.46
2022-10-16T01:46:38.724Z,90.05
2022-10-16T01:48:41.037Z,90.36
2022-10-16T01:50:45.095Z,90.21
2022-10-16T01:52:50.550Z,90.20
2022-10-16T01:54:55.755Z,90.57
2022-10-16T01:56:59.226Z,91.25
2022-10-16T01:59:08.330Z,91.20
2022-10-16T02:01:12.280Z,91.35
2022-10-16T02:03:16.911Z,91.68
2022-10-16T02:05:26.352Z,91.71
2022-10-16T02:07:28.127Z,92.24
2022-10-16T02:09:31.895Z,92.31
2022-10-16T02:11:33.400Z,91.93
2022-10-16T02:13:40.554Z,91.97
2022-10-16T02:15:42.040Z,92.11
2022-10-16T02:17:43.483Z,92.60
2022-10-16T02:19:47.087Z,92.44
2022-10-16T02:21:59.610Z,92.17
2022-10-16T02:24:26.411Z,92.31
2022-10-16T02:26:36.289Z,91.68
2022-10-16T02:28:44.185Z,91.41
2022-10-16T02:31:14.032Z,91.44
2022-10-16T02:33:17.384Z,91.41
2022-10-16T02:35:21.848Z,89.93
2022-10-16T02:37:23.354Z,90.40
2022-10-16T02:39:25.316Z,91.12
2022-10-16T02:41:27.284Z,91.63
2022-10-16T02:43:28.775Z,90.83
2022-10-16T02:45:30.334Z,91.03
2022-10-16T02:47:31.835Z,91.40
2022-10-16T02:49:33.367Z,91.58
2022-10-16T02:51:34.866Z,91.44
2022-10-16T02:53:36.664Z,90.79
2022-10-16T02:55:38.119Z,91.29
2022-10-16T02:57:41.263Z,91.42
2022-10-16T02:59:42.873Z,91.76
2022-10-16T03:01:44.319Z,92.10
2022-10-16T03:03:45.754Z,92.29
2022-10-16T03:05:47.204Z,92.61
2022-10-16T03:07:48.636Z,92.73
2022-10-16T03:09:50.069Z,92.80
2022-10-16T03:11:51.799Z,93.11
2022-10-16T03:13:53.255Z,93.44
2022-10-16T03:15:54.732Z,93.06
2022-10-16T03:17:59.395Z,92.86
2022-10-16T03:20:00.842Z,93.24
2022-10-16T03:22:03.000Z,93.26
2022-10-16T03:24:04.776Z,93.28
2022-10-16T03:26:06.212Z,93.54
2022-10-16T03:28:07.763Z,93.54
2022-10-16T03:30:10.054Z,93.13
2022-10-16T03:32:11.656Z,92.81
2022-10-16T03:34:13.073Z,93.66
2022-10-16T03:36:14.573Z,93.63
2022-10-16T03:38:16.011Z,93.66
2022-10-16T03:40:18.076Z,93.38
2022-10-16T03:42:19.598Z,93.64
2022-10-16T03:44:21.047Z,93.32
2022-10-16T03:46:22.569Z,93.64
2022-10-16T03:48:24.104Z,93.85
2022-10-16T03:50:25.549Z,93.78
2022-10-16T03:52:27.005Z,93.88
2022-10-16T03:54:28.492Z,93.90
2022-10-16T03:56:29.930Z,93.82
2022-10-16T03:58:31.406Z,93.87
2022-10-16T04:00:32.858Z,93.72
2022-10-16T04:02:34.349Z,93.13
2022-10-16T04:04:35.861Z,92.49
2022-10-16T04:06:37.329Z,91.91
2022-10-16T04:08:40.090Z,91.72
2022-10-16T04:10:44.449Z,92.00
2022-10-16T04:12:45.896Z,92.57
2022-10-16T04:14:47.325Z,91.88
2022-10-16T04:16:48.811Z,91.35
2022-10-16T04:18:50.265Z,91.85
2022-10-16T04:20:51.751Z,92.47
2022-10-16T04:22:53.225Z,91.95
2022-10-16T04:24:54.735Z,92.51
2022-10-16T04:26:56.194Z,93.43
2022-10-16T04:28:57.720Z,94.15
2022-10-16T04:30:59.219Z,95.26
2022-10-16T04:35:03.895Z,96.03
2022-10-16T04:37:05.402Z,96.96
2022-10-16T04:39:06.879Z,97.62
2022-10-16T04:41:08.670Z,97.76
2022-10-16T04:43:10.418Z,97.86
2022-10-16T04:45:14.885Z,97.93
2022-10-16T04:47:18.629Z,97.56
2022-10-16T04:49:20.109Z,97.45
2022-10-16T04:51:21.620Z,97.52
2022-10-16T04:53:23.295Z,97.62
2022-10-16T04:55:24.800Z,97.73
2022-10-16T04:57:26.520Z,97.96
2022-10-16T04:59:28.091Z,97.97
2022-10-16T05:01:29.529Z,98.29
2022-10-16T05:05:37.569Z,98.18
2022-10-16T05:07:38.992Z,98.82
2022-10-16T05:09:40.406Z,98.89
2022-10-16T05:11:41.855Z,99.04
2022-10-16T05:13:43.290Z,99.20
2022-10-16T05:15:49.260Z,99.32
2022-10-16T05:17:53.891Z,99.22
2022-10-16T05:19:55.483Z,99.39
2022-10-16T05:21:56.992Z,99.21
2022-10-16T05:23:58.430Z,99.08
2022-10-16T05:26:00.560Z,99.20
2022-10-16T05:28:01.994Z,99.16
2022-10-16T05:30:04.869Z,98.91
2022-10-16T05:32:07.853Z,99.23
2022-10-16T05:34:09.443Z,98.93
2022-10-16T05:36:11.242Z,99.05
2022-10-16T05:38:12.687Z,98.54
2022-10-16T05:41:59.915Z,98.54
2022-10-16T05:46:11.128Z,98.79
2022-10-16T05:48:12.540Z,98.87
2022-10-16T05:50:14.106Z,99.25
2022-10-16T05:52:15.548Z,99.16
2022-10-16T05:54:17.842Z,99.28
2022-10-16T05:56:19.490Z,99.44
2022-10-16T05:58:20.976Z,99.39
2022-10-16T06:00:22.410Z,99.37
2022-10-16T06:02:23.936Z,99.46
2022-10-16T06:04:25.335Z,99.59
2022-10-16T06:06:28.112Z,99.41
2022-10-16T06:08:29.555Z,99.72
2022-10-16T06:10:30.996Z,99.40
2022-10-16T06:12:32.488Z,99.60
2022-10-16T06:14:34.065Z,99.88
2022-10-16T06:16:37.205Z,99.94
2022-10-16T06:18:39.236Z,99.85
2022-10-16T06:20:40.655Z,99.62
2022-10-16T06:22:42.152Z,99.49
2022-10-16T06:24:43.587Z,99.93
2022-10-16T06:26:45.035Z,99.74
2022-10-16T06:28:46.639Z,99.91
2022-10-16T06:30:48.147Z,99.63
2022-10-16T06:32:49.765Z,99.74
2022-10-16T06:34:51.221Z,99.66
2022-10-16T06:36:52.658Z,99.37
2022-10-16T06:38:54.384Z,99.60
2022-10-16T06:40:55.899Z,99.39
2022-10-16T06:42:57.428Z,98.86
2022-10-16T06:44:58.901Z,99.07
2022-10-16T06:47:00.336Z,99.23
2022-10-16T06:49:01.787Z,98.70
2022-10-16T06:51:07.867Z,99.03
2022-10-16T06:53:09.541Z,98.79
2022-10-16T06:55:11.000Z,98.50
2022-10-16T06:57:12.453Z,98.49
2022-10-16T06:59:13.916Z,98.83
2022-10-16T07:01:17.010Z,98.28
2022-10-16T07:03:18.428Z,98.16
2022-10-16T07:05:19.848Z,97.74
2022-10-16T07:07:21.326Z,97.79
2022-10-16T07:09:22.829Z,97.93
2022-10-16T07:11:24.793Z,97.54
2022-10-16T07:13:26.797Z,97.44
2022-10-16T07:15:28.521Z,97.43
2022-10-16T07:17:29.960Z,97.41
2022-10-16T07:19:34.268Z,97.41
2022-10-16T07:21:38.918Z,98.22
2022-10-16T07:23:41.203Z,97.93
2022-10-16T07:25:42.645Z,97.90
2022-10-16T07:27:44.221Z,98.22
2022-10-16T07:29:45.662Z,98.00
2022-10-16T07:31:48.379Z,97.97
2022-10-16T07:33:51.376Z,97.54
2022-10-16T07:35:54.876Z,97.16
2022-10-16T07:37:56.320Z,97.02
2022-10-16T07:39:57.778Z,96.48
2022-10-16T07:41:59.350Z,96.55
2022-10-16T07:44:01.605Z,96.26
2022-10-16T07:46:06.268Z,95.56
2022-10-16T07:48:08.123Z,95.27
2022-10-16T07:50:09.649Z,95.49
2022-10-16T07:52:11.082Z,95.07
2022-10-16T07:54:12.586Z,95.21
2022-10-16T07:56:15.077Z,94.64
2022-10-16T07:58:16.518Z,94.95
2022-10-16T08:00:18.020Z,95.46
2022-10-16T08:02:19.462Z,93.63
2022-10-16T08:04:20.929Z,93.85
2022-10-16T08:06:26.754Z,93.61
2022-10-16T08:08:30.030Z,92.94
2022-10-16T08:10:32.610Z,93.16
2022-10-16T08:12:34.042Z,92.34
2022-10-16T08:14:35.474Z,91.53
2022-10-16T08:16:36.903Z,91.32
2022-10-16T08:18:40.377Z,91.50
2022-10-16T08:20:42.883Z,91.64
2022-10-16T08:22:44.302Z,90.81
2022-10-16T08:24:45.734Z,90.32
2022-10-16T08:26:47.169Z,89.94
2022-10-16T08:28:51.745Z,89.72
2022-10-16T08:30:53.320Z,89.60
2022-10-16T08:32:54.865Z,87.99
2022-10-16T08:34:56.365Z,87.78
2022-10-16T08:36:57.852Z,88.40
2022-10-16T08:38:59.388Z,88.70
2022-10-16T08:41:30.263Z,87.68
2022-10-16T08:43:52.958Z,87.31
2022-10-16T08:45:57.419Z,87.41
2022-10-16T08:48:12.907Z,87.63
2022-10-16T08:50:19.940Z,87.37
2022-10-16T08:52:21.424Z,86.53
2022-10-16T08:54:30.720Z,86.71
2022-10-16T08:56:34.016Z,86.38
2022-10-16T08:58:35.508Z,85.74
2022-10-16T09:00:37.105Z,85.66
2022-10-16T09:02:52.001Z,85.26
2022-10-16T09:05:05.107Z,84.65
2022-10-16T09:07:39.745Z,84.02
2022-10-16T09:10:07.029Z,84.14
2022-10-16T09:12:30.538Z,84.33
2022-10-16T09:15:01.458Z,84.36
2022-10-16T09:17:24.813Z,83.73
2022-10-16T09:19:40.319Z,83.40
2022-10-16T09:21:46.500Z,82.95
2022-10-16T09:23:48.563Z,82.21
2022-10-16T09:25:52.096Z,82.64
2022-10-16T09:27:55.117Z,81.43
2022-10-16T09:29:59.642Z,80.25
2022-10-16T09:32:18.353Z,79.98
2022-10-16T09:34:30.210Z,79.79
2022-10-16T09:36:42.988Z,80.09
2022-10-16T09:38:44.430Z,80.70
2022-10-16T09:40:49.540Z,80.85
2022-10-16T09:43:02.082Z,80.15
2022-10-16T09:45:04.973Z,80.22
2022-10-16T09:47:15.355Z,80.62
2022-10-16T09:49:34.819Z,79.70
2022-10-16T09:51:38.233Z,79.46
2022-10-16T09:53:45.745Z,79.00
2022-10-16T09:55:54.639Z,79.40
2022-10-16T09:57:56.647Z,79.53
2022-10-16T09:59:59.367Z,79.29
2022-10-16T10:02:12.017Z,78.71
2022-10-16T10:04:13.857Z,78.43
2022-10-16T10:06:23.842Z,78.04
2022-10-16T10:08:25.467Z,78.03
2022-10-16T10:10:29.997Z,78.13
2022-10-16T10:12:35.586Z,78.00
2022-10-16T10:14:45.627Z,77.43
2022-10-16T10:16:48.255Z,76.77
2022-10-16T10:18:59.503Z,76.03
2022-10-16T10:21:05.967Z,76.36
2022-10-16T10:23:26.602Z,75.55
2022-10-16T10:25:37.034Z,75.06
2022-10-16T10:27:53.546Z,75.33
2022-10-16T10:32:37.548Z,74.70
2022-10-16T10:34:54.238Z,71.69
2022-10-16T10:37:21.958Z,71.62
2022-10-16T10:39:37.226Z,72.28
2022-10-16T10:41:54.038Z,69.21
2022-10-16T10:44:13.913Z,69.92
2022-10-16T10:46:30.901Z,69.07
2022-10-16T10:48:50.946Z,68.31
2022-10-16T10:50:58.443Z,66.11
2022-10-16T10:52:59.833Z,67.34
2022-10-16T10:55:10.257Z,67.97
2022-10-16T10:57:25.472Z,66.62
2022-10-16T11:00:02.151Z,64.51
2022-10-16T11:02:31.423Z,61.29
2022-10-16T11:04:48.091Z,59.65
2022-10-16T11:06:50.916Z,58.88
2022-10-16T11:09:03.324Z,56.96
2022-10-16T11:11:14.996Z,55.03
2022-10-16T11:13:32.087Z,53.19
2022-10-16T11:15:40.468Z,53.72
2022-10-16T11:18:02.780Z,53.21
2022-10-16T11:20:14.420Z,52.22
2022-10-16T11:22:15.852Z,51.44
2022-10-16T11:24:29.081Z,51.28
2022-10-16T11:26:35.929Z,51.18
2022-10-16T11:28:44.008Z,50.37
2022-10-16T11:30:53.903Z,52.99
2022-10-16T11:33:05.694Z,53.37
2022-10-16T11:35:22.106Z,52.50
2022-10-16T11:37:39.999Z,53.21
2022-10-16T11:39:43.354Z,53.16
2022-10-16T11:41:52.508Z,54.82
2022-10-16T11:44:06.298Z,54.58
2022-10-16T11:46:22.559Z,54.91
2022-10-16T11:48:33.375Z,55.45
2022-10-16T11:50:44.494Z,55.59
2022-10-16T11:52:57.658Z,55.35
2022-10-16T11:55:06.626Z,55.87
2022-10-16T11:57:19.297Z,55.13
2022-10-16T11:59:35.597Z,55.78
2022-10-16T12:01:54.043Z,56.38
2022-10-16T12:04:03.726Z,55.94
2022-10-16T12:06:29.648Z,56.49
2022-10-16T12:08:31.526Z,57.00
2022-10-16T12:12:46.387Z,58.84
2022-10-16T12:15:11.282Z,59.80
2022-10-16T12:17:39.446Z,60.70
2022-10-16T12:19:40.990Z,60.10
2022-10-16T12:21:43.661Z,59.37
2022-10-16T12:23:54.863Z,58.75
2022-10-16T12:25:58.351Z,59.63
2022-10-16T12:28:20.175Z,58.66
2022-10-16T12:30:24.989Z,58.42
2022-10-16T12:32:46.179Z,59.12
2022-10-16T12:34:49.523Z,58.64
2022-10-16T12:36:51.424Z,58.30
2022-10-16T12:38:54.635Z,58.33
2022-10-16T12:41:02.215Z,57.21
2022-10-16T12:43:32.812Z,58.47
2022-10-16T12:45:35.074Z,57.41
2022-10-16T12:47:39.532Z,57.32
2022-10-16T12:49:50.457Z,56.67
2022-10-16T12:51:52.610Z,58.21
2022-10-16T12:54:03.456Z,59.28
2022-10-16T12:56:17.185Z,57.66
2022-10-16T12:58:32.470Z,58.65
2022-10-16T13:00:42.604Z,58.78
2022-10-16T13:02:44.079Z,58.42
2022-10-16T13:04:55.568Z,58.12
2022-10-16T13:07:14.954Z,57.50
2022-10-16T13:09:28.732Z,58.40
2022-10-16T13:11:57.701Z,58.42
2022-10-16T13:14:36.371Z,57.75
2022-10-16T13:17:14.764Z,57.44
2022-10-16T13:19:19.083Z,57.30
2022-10-16T13:21:42.182Z,57.45
2022-10-16T13:23:55.614Z,57.96
2022-10-16T13:26:10.858Z,57.45
2022-10-16T13:28:13.911Z,57.97
2022-10-16T13:30:30.617Z,58.27
2022-10-16T13:32:32.575Z,58.40
2022-10-16T13:34:34.009Z,58.82
2022-10-16T13:36:45.263Z,58.32
2022-10-16T13:38:46.728Z,58.25
2022-10-16T13:40:58.229Z,58.49
2022-10-16T13:43:00.973Z,58.29
2022-10-16T13:45:02.567Z,58.78
2022-10-16T13:47:04.168Z,59.19
2022-10-16T13:49:17.065Z,59.29
2022-10-16T13:51:19.802Z,59.94
2022-10-16T13:53:21.348Z,59.20
2022-10-16T13:55:22.880Z,59.56
2022-10-16T13:57:27.735Z,57.92
2022-10-16T13:59:39.686Z,57.36
2022-10-16T14:01:44.311Z,57.62
2022-10-16T14:03:47.698Z,56.82
2022-10-16T14:05:52.374Z,57.17
2022-10-16T14:07:55.621Z,57.24
2022-10-16T14:10:01.896Z,57.28
2022-10-16T14:12:09.406Z,57.37
2022-10-16T14:14:13.342Z,57.45
2022-10-16T14:16:21.244Z,57.39
2022-10-16T14:18:25.881Z,57.54
2022-10-16T14:20:29.446Z,56.97
2022-10-16T14:22:41.144Z,56.39
2022-10-16T14:24:42.699Z,57.52
2022-10-16T14:26:50.510Z,57.89
2022-10-16T14:29:14.558Z,57.26
2022-10-16T14:31:32.477Z,57.13
2022-10-16T14:33:35.371Z,57.62
2022-10-16T14:35:39.885Z,57.84
2022-10-16T14:37:41.484Z,58.17
2022-10-16T14:39:43.089Z,58.77
2022-10-16T14:41:50.691Z,58.43
2022-10-16T14:43:55.690Z,58.24
2022-10-16T14:45:57.996Z,57.71
2022-10-16T14:48:20.720Z,59.41
2022-10-16T14:50:22.540Z,59.32
2022-10-16T14:52:24.156Z,58.63
2022-10-16T14:54:25.604Z,58.55
2022-10-16T14:56:33.051Z,58.73
2022-10-16T14:58:36.172Z,58.97
2022-10-16T15:00:37.634Z,59.06
2022-10-16T15:02:39.080Z,59.22
2022-10-16T15:04:40.507Z,58.75
2022-10-16T15:06:42.129Z,58.83
2022-10-16T15:08:43.959Z,59.54
2022-10-16T15:10:45.509Z,59.39
2022-10-16T15:12:47.633Z,59.62
2022-10-16T15:14:49.057Z,59.54
2022-10-16T15:16:50.533Z,59.72
2022-10-16T15:18:52.092Z,59.89
2022-10-16T15:20:53.598Z,60.85
2022-10-16T15:22:55.368Z,60.75
2022-10-16T15:24:56.806Z,61.38
2022-10-16T15:26:58.270Z,61.20
2022-10-16T15:28:59.838Z,61.58
2022-10-16T15:31:01.341Z,61.81
2022-10-16T15:33:03.819Z,61.45
2022-10-16T15:35:05.832Z,62.05
2022-10-16T15:37:07.281Z,62.03
2022-10-16T15:39:26.817Z,62.61
2022-10-16T15:41:28.298Z,63.27
2022-10-16T15:43:29.808Z,63.27
2022-10-16T15:45:31.252Z,63.38
2022-10-16T15:47:32.996Z,64.06
2022-10-16T15:49:40.791Z,64.13
2022-10-16T15:51:43.220Z,65.39
2022-10-16T15:53:47.247Z,66.08
2022-10-16T15:55:48.912Z,67.05
2022-10-16T15:57:50.427Z,67.22
2022-10-16T15:59:51.972Z,68.18
2022-10-16T16:01:53.472Z,68.51
2022-10-16T16:03:55.453Z,69.05
2022-10-16T16:06:02.122Z,69.68
2022-10-16T16:08:03.595Z,70.11
2022-10-16T16:10:11.269Z,70.63
2022-10-16T16:12:12.740Z,71.18
2022-10-16T16:14:18.607Z,71.58
2022-10-16T16:16:21.120Z,72.09
2022-10-16T16:18:23.531Z,72.21
2022-10-16T16:20:25.017Z,72.61
2022-10-16T16:22:26.958Z,72.90
2022-10-16T16:24:28.652Z,73.14
2022-10-16T16:26:35.961Z,73.47
2022-10-16T16:28:37.963Z,74.07
2022-10-16T16:30:39.474Z,74.39
2022-10-16T16:32:40.984Z,74.57
2022-10-16T16:34:42.600Z,74.81
2022-10-16T16:36:44.063Z,75.33
2022-10-16T16:38:46.621Z,75.61
2022-10-16T16:40:49.301Z,75.79
2022-10-16T16:42:53.686Z,76.03
2022-10-16T16:44:55.384Z,76.11
2022-10-16T16:46:56.957Z,76.38
2022-10-16T16:48:59.267Z,76.42
2022-10-16T16:51:16.212Z,76.52
2022-10-16T16:53:17.720Z,76.87
2022-10-16T16:55:20.438Z,77.12
2022-10-16T16:57:22.018Z,77.45
2022-10-16T16:59:23.485Z,77.40
2022-10-16T17:01:26.943Z,77.69
2022-10-16T17:03:29.409Z,77.81
2022-10-16T17:05:30.855Z,77.79
2022-10-16T17:07:35.342Z,77.87
2022-10-16T17:09:36.815Z,78.48
2022-10-16T17:11:38.259Z,77.94
2022-10-16T17:13:40.741Z,78.44
2022-10-16T17:15:48.023Z,78.02
2022-10-16T17:17:49.989Z,78.11
2022-10-16T17:19:52.000Z,78.51
2022-10-16T17:21:53.807Z,78.28
2022-10-16T17:23:55.307Z,78.49
2022-10-16T17:25:56.854Z,78.45
2022-10-16T17:27:58.451Z,78.72
2022-10-16T17:29:59.998Z,78.87
2022-10-16T17:32:01.649Z,79.12
2022-10-16T17:34:06.237Z,78.57
2022-10-16T17:36:08.593Z,78.80
2022-10-16T17:38:12.138Z,79.33
2022-10-16T17:42:20.175Z,79.23
2022-10-16T17:44:24.662Z,79.54
2022-10-16T17:46:29.905Z,79.26
2022-10-16T17:48:31.379Z,79.03
2022-10-16T17:50:35.759Z,79.38
2022-10-16T17:52:37.194Z,79.15
2022-10-16T17:54:42.689Z,79.04
2022-10-16T17:57:07.186Z,79.76
2022-10-16T17:59:11.432Z,79.70
2022-10-16T18:01:19.063Z,79.67
2022-10-16T18:03:20.545Z,79.87
2022-10-16T18:05:22.173Z,79.94
2022-10-16T18:07:23.600Z,80.12
2022-10-16T18:09:25.064Z,80.68
2022-10-16T18:11:27.341Z,80.89
2022-10-16T18:13:28.773Z,80.82
2022-10-16T18:15:30.273Z,80.73
2022-10-16T18:17:33.800Z,80.27
2022-10-16T18:19:35.241Z,80.29
2022-10-16T18:21:36.856Z,80.67
2022-10-16T18:23:39.871Z,80.60
2022-10-16T18:25:49.757Z,79.99
2022-10-16T18:27:51.248Z,80.43
2022-10-16T18:29:56.417Z,80.03
2022-10-16T18:31:57.854Z,80.38
2022-10-16T18:33:59.656Z,80.23
2022-10-16T18:36:03.577Z,80.31
2022-10-16T18:38:05.135Z,80.02
2022-10-16T18:40:06.743Z,80.37
2022-10-16T18:42:08.176Z,80.16
2022-10-16T18:44:10.796Z,80.49
2022-10-16T18:46:15.795Z,80.56
2022-10-16T18:48:17.208Z,80.63
2022-10-16T18:50:18.644Z,80.52
2022-10-16T18:52:21.931Z,80.56
2022-10-16T18:54:24.574Z,80.31
2022-10-16T18:56:27.960Z,80.67
2022-10-16T18:58:29.470Z,80.72
2022-10-16T19:00:30.901Z,80.94
2022-10-16T19:02:32.605Z,80.81
2022-10-16T19:04:34.011Z,80.74
2022-10-16T19:06:38.650Z,80.60
2022-10-16T19:08:41.162Z,80.51
2022-10-16T19:10:42.638Z,80.54
2022-10-16T19:12:44.285Z,80.31
2022-10-16T19:14:48.845Z,80.24
2022-10-16T19:16:50.278Z,80.06
2022-10-16T19:18:55.240Z,80.02
2022-10-16T19:21:02.286Z,80.26
2022-10-16T19:23:04.162Z,80.26
2022-10-16T19:25:06.096Z,80.08
2022-10-16T19:27:07.991Z,80.00
2022-10-16T19:29:10.629Z,80.28
2022-10-16T19:31:15.505Z,79.98
2022-10-16T19:33:16.939Z,80.28
2022-10-16T19:35:18.563Z,80.35
2022-10-16T19:37:25.709Z,80.06
2022-10-16T19:39:27.233Z,80.36
2022-10-16T19:41:29.679Z,80.63
2022-10-16T19:43:31.125Z,82.04
2022-10-16T19:45:33.660Z,81.85
2022-10-16T19:47:36.563Z,81.24
2022-10-16T19:49:38.105Z,81.14
2022-10-16T19:51:40.149Z,80.92
2022-10-16T19:53:42.259Z,80.97
2022-10-16T19:55:43.683Z,81.08
2022-10-16T19:57:45.116Z,80.77
2022-10-16T19:59:46.634Z,80.73
2022-10-16T20:01:48.185Z,80.88
2022-10-16T20:03:50.438Z,80.91
2022-10-16T20:05:56.738Z,81.20
2022-10-16T20:07:58.163Z,80.96
2022-10-16T20:09:59.617Z,80.79
2022-10-16T20:12:02.301Z,80.79
2022-10-16T20:14:05.534Z,81.17
2022-10-16T20:16:07.875Z,81.17
2022-10-16T20:18:09.312Z,80.87
2022-10-16T20:20:11.036Z,80.80
2022-10-16T20:22:12.444Z,80.93
2022-10-16T20:24:13.928Z,80.48
2022-10-16T20:26:16.790Z,80.49
2022-10-16T20:28:20.637Z,81.77
2022-10-16T20:30:22.146Z,82.83
2022-10-16T20:32:23.955Z,84.85
2022-10-16T20:34:25.472Z,84.26
2022-10-16T20:36:27.036Z,82.99
2022-10-16T20:38:28.654Z,83.84
2022-10-16T20:40:30.311Z,84.13
2022-10-16T20:42:31.728Z,83.71
2022-10-16T20:44:34.492Z,82.68
2022-10-16T20:46:35.957Z,82.58
2022-10-16T20:48:41.080Z,84.09
2022-10-16T20:50:42.532Z,85.72
2022-10-16T20:52:43.970Z,86.71
2022-10-16T20:54:46.008Z,86.15
2022-10-16T20:56:47.722Z,84.27
2022-10-16T20:58:49.369Z,84.51
2022-10-16T21:00:50.798Z,83.73
2022-10-16T21:02:53.276Z,83.27
2022-10-16T21:04:54.827Z,82.93
2022-10-16T21:06:56.252Z,82.39
2022-10-16T21:08:59.657Z,82.92
2022-10-16T21:11:01.146Z,82.48
2022-10-16T21:13:03.579Z,81.94
2022-10-16T21:15:20.232Z,81.57
2022-10-16T21:17:21.715Z,81.29
2022-10-16T21:19:23.453Z,82.14
2022-10-16T21:21:29.271Z,83.47
2022-10-16T21:23:32.628Z,85.38
2022-10-16T21:25:34.058Z,86.34
2022-10-16T21:27:40.229Z,85.50
2022-10-16T21:29:41.815Z,84.24
2022-10-16T21:31:43.402Z,84.07
2022-10-16T21:33:45.654Z,84.10
2022-10-16T21:35:47.072Z,84.72
2022-10-16T21:37:49.595Z,84.50
2022-10-16T21:39:51.026Z,83.73
2022-10-16T21:41:52.720Z,82.66
2022-10-16T21:43:55.975Z,82.23
2022-10-16T21:45:57.406Z,81.55
2022-10-16T21:47:58.857Z,81.55
2022-10-16T21:50:00.285Z,81.13
2022-10-16T21:52:01.702Z,81.08
2022-10-16T21:54:05.012Z,80.99
2022-10-16T21:56:14.163Z,81.53
2022-10-16T21:58:15.700Z,83.26
2022-10-16T22:00:17.313Z,83.30
2022-10-16T22:02:18.794Z,83.35
2022-10-16T22:04:20.240Z,83.43
2022-10-16T22:06:25.472Z,83.40
2022-10-16T22:08:26.884Z,83.00
2022-10-16T22:10:28.392Z,82.56
2022-10-16T22:12:30.127Z,81.97
2022-10-16T22:14:31.611Z,82.24
2022-10-16T22:16:34.135Z,81.71
2022-10-16T22:18:36.534Z,81.53
2022-10-16T22:20:37.970Z,81.10
2022-10-16T22:22:39.394Z,80.68
2022-10-16T22:24:41.337Z,81.32
2022-10-16T22:26:43.678Z,81.30
2022-10-16T22:28:45.162Z,80.63
2022-10-16T22:30:46.709Z,80.10
2022-10-16T22:32:48.108Z,79.89
2022-10-16T22:34:49.575Z,82.54
2022-10-16T22:36:51.060Z,83.37
2022-10-16T22:38:53.228Z,83.37
2022-10-16T22:40:54.656Z,82.70
2022-10-16T22:42:57.304Z,81.79
2022-10-16T22:44:58.772Z,81.85
2022-10-16T22:47:00.201Z,81.64
2022-10-16T22:49:01.609Z,82.19
2022-10-16T22:51:04.891Z,82.20
2022-10-16T22:53:06.323Z,82.49
2022-10-16T22:55:08.046Z,82.70
2022-10-16T22:57:09.503Z,82.30
2022-10-16T22:59:11.162Z,83.05
2022-10-16T23:01:19.367Z,83.36
2022-10-16T23:03:20.865Z,83.06
2022-10-16T23:05:22.368Z,83.23
2022-10-16T23:07:23.836Z,82.75
2022-10-16T23:09:25.251Z,82.91
2022-10-16T23:11:29.551Z,81.78
2022-10-16T23:13:30.990Z,80.96
2022-10-16T23:15:32.533Z,81.05
2022-10-16T23:17:34.110Z,80.27
2022-10-16T23:19:35.534Z,81.80
2022-10-16T23:21:37.014Z,82.78
2022-10-16T23:23:40.154Z,83.20
2022-10-16T23:25:47.041Z,83.75
2022-10-16T23:27:48.533Z,83.89
2022-10-16T23:29:50.078Z,84.37
2022-10-16T23:31:54.372Z,84.80
2022-10-16T23:33:56.766Z,85.96
2022-10-16T23:35:58.184Z,85.58
2022-10-16T23:37:59.671Z,84.19
2022-10-16T23:40:01.146Z,82.66
2022-10-16T23:42:02.597Z,81.54
2022-10-16T23:44:04.504Z,80.71
2022-10-16T23:46:07.736Z,80.71
2022-10-16T23:48:09.165Z,80.44
2022-10-16T23:50:10.580Z,81.29
2022-10-16T23:52:12.040Z,82.15
2022-10-16T23:54:13.483Z,81.96
2022-10-16T23:56:14.992Z,82.39
2022-10-16T23:58:18.219Z,84.78
